sensor_id;sensor_type;location;lat;lon;timestamp;P1;durP1;ratioP1;P2;durP2;ratioP2
46835;SDS011;32573;51.290;6.926;2023-04-28T00:01:47;4.47;;;2.47;;
46835;SDS011;32573;51.290;6.926;2023-04-28T00:04:16;4.63;;;2.63;;
46835;SDS011;32573;51.290;6.926;2023-04-28T00:06:46;4.10;;;2.35;;
46835;SDS011;32573;51.290;6.926;2023-04-28T00:09:14;4.85;;;2.50;;
46835;SDS011;32573;51.290;6.926;2023-04-28T00:11:44;4.18;;;2.22;;
46835;SDS011;32573;51.290;6.926;2023-04-28T00:14:13;4.43;;;2.30;;
46835;SDS011;32573;51.290;6.926;2023-04-28T00:16:42;4.05;;;2.10;;
46835;SDS011;32573;51.290;6.926;2023-04-28T00:19:10;4.63;;;2.30;;
46835;SDS011;32573;51.290;6.926;2023-04-28T00:21:39;3.83;;;2.03;;
46835;SDS011;32573;51.290;6.926;2023-04-28T00:24:07;5.68;;;2.30;;
46835;SDS011;32573;51.290;6.926;2023-04-28T00:26:36;4.80;;;2.20;;
46835;SDS011;32573;51.290;6.926;2023-04-28T00:29:06;5.78;;;2.40;;
46835;SDS011;32573;51.290;6.926;2023-04-28T00:31:34;4.10;;;2.25;;
46835;SDS011;32573;51.290;6.926;2023-04-28T00:34:03;4.78;;;2.45;;
46835;SDS011;32573;51.290;6.926;2023-04-28T00:36:32;5.40;;;2.58;;
46835;SDS011;32573;51.290;6.926;2023-04-28T00:39:01;6.45;;;2.88;;
46835;SDS011;32573;51.290;6.926;2023-04-28T00:41:30;4.93;;;2.70;;
46835;SDS011;32573;51.290;6.926;2023-04-28T00:43:58;5.68;;;2.70;;
46835;SDS011;32573;51.290;6.926;2023-04-28T00:46:29;4.70;;;2.65;;
46835;SDS011;32573;51.290;6.926;2023-04-28T00:48:59;4.82;;;2.55;;
46835;SDS011;32573;51.290;6.926;2023-04-28T00:51:27;4.95;;;2.67;;
46835;SDS011;32573;51.290;6.926;2023-04-28T00:53:56;4.63;;;2.60;;
46835;SDS011;32573;51.290;6.926;2023-04-28T00:56:25;5.13;;;2.58;;
46835;SDS011;32573;51.290;6.926;2023-04-28T00:58:57;5.28;;;2.95;;
46835;SDS011;32573;51.290;6.926;2023-04-28T01:01:25;5.32;;;2.90;;
46835;SDS011;32573;51.290;6.926;2023-04-28T01:03:56;5.47;;;2.95;;
46835;SDS011;32573;51.290;6.926;2023-04-28T01:06:25;5.78;;;2.72;;
46835;SDS011;32573;51.290;6.926;2023-04-28T01:08:57;4.65;;;2.65;;
46835;SDS011;32573;51.290;6.926;2023-04-28T01:11:26;5.03;;;2.47;;
46835;SDS011;32573;51.290;6.926;2023-04-28T01:14:06;6.03;;;2.80;;
46835;SDS011;32573;51.290;6.926;2023-04-28T01:16:37;5.35;;;2.33;;
46835;SDS011;32573;51.290;6.926;2023-04-28T01:19:07;4.60;;;2.70;;
46835;SDS011;32573;51.290;6.926;2023-04-28T01:21:42;5.47;;;2.38;;
46835;SDS011;32573;51.290;6.926;2023-04-28T01:24:20;4.63;;;2.25;;
46835;SDS011;32573;51.290;6.926;2023-04-28T01:26:49;4.57;;;2.50;;
46835;SDS011;32573;51.290;6.926;2023-04-28T01:29:18;4.18;;;2.20;;
46835;SDS011;32573;51.290;6.926;2023-04-28T01:31:46;4.80;;;2.30;;
46835;SDS011;32573;51.290;6.926;2023-04-28T01:34:16;4.82;;;2.40;;
46835;SDS011;32573;51.290;6.926;2023-04-28T01:36:44;4.75;;;2.58;;
46835;SDS011;32573;51.290;6.926;2023-04-28T01:39:18;4.47;;;2.40;;
46835;SDS011;32573;51.290;6.926;2023-04-28T01:41:48;5.03;;;2.60;;
46835;SDS011;32573;51.290;6.926;2023-04-28T01:44:17;5.75;;;2.80;;
46835;SDS011;32573;51.290;6.926;2023-04-28T01:46:47;5.40;;;3.03;;
46835;SDS011;32573;51.290;6.926;2023-04-28T01:49:16;5.38;;;2.85;;
46835;SDS011;32573;51.290;6.926;2023-04-28T01:51:54;5.22;;;2.65;;
46835;SDS011;32573;51.290;6.926;2023-04-28T01:54:22;6.28;;;3.13;;
46835;SDS011;32573;51.290;6.926;2023-04-28T01:57:29;5.45;;;2.83;;
46835;SDS011;32573;51.290;6.926;2023-04-28T01:59:59;5.85;;;2.90;;
46835;SDS011;32573;51.290;6.926;2023-04-28T02:02:28;5.85;;;2.85;;
46835;SDS011;32573;51.290;6.926;2023-04-28T02:04:57;5.88;;;2.75;;
46835;SDS011;32573;51.290;6.926;2023-04-28T02:07:26;4.60;;;2.78;;
46835;SDS011;32573;51.290;6.926;2023-04-28T02:09:54;6.38;;;3.13;;
46835;SDS011;32573;51.290;6.926;2023-04-28T02:12:23;6.47;;;3.00;;
46835;SDS011;32573;51.290;6.926;2023-04-28T02:14:53;5.20;;;3.03;;
46835;SDS011;32573;51.290;6.926;2023-04-28T02:17:22;5.70;;;2.78;;
46835;SDS011;32573;51.290;6.926;2023-04-28T02:19:53;5.75;;;3.03;;
46835;SDS011;32573;51.290;6.926;2023-04-28T02:22:22;6.00;;;3.10;;
46835;SDS011;32573;51.290;6.926;2023-04-28T02:24:51;5.60;;;2.97;;
46835;SDS011;32573;51.290;6.926;2023-04-28T02:27:20;5.53;;;3.22;;
46835;SDS011;32573;51.290;6.926;2023-04-28T02:29:48;5.30;;;2.97;;
46835;SDS011;32573;51.290;6.926;2023-04-28T02:32:19;5.40;;;3.00;;
46835;SDS011;32573;51.290;6.926;2023-04-28T02:34:51;7.38;;;3.45;;
46835;SDS011;32573;51.290;6.926;2023-04-28T02:37:22;4.88;;;2.78;;
46835;SDS011;32573;51.290;6.926;2023-04-28T02:39:50;5.13;;;2.85;;
46835;SDS011;32573;51.290;6.926;2023-04-28T02:42:21;6.82;;;3.35;;
46835;SDS011;32573;51.290;6.926;2023-04-28T02:44:50;5.40;;;3.15;;
46835;SDS011;32573;51.290;6.926;2023-04-28T02:47:19;5.28;;;2.97;;
46835;SDS011;32573;51.290;6.926;2023-04-28T02:49:48;6.28;;;3.15;;
46835;SDS011;32573;51.290;6.926;2023-04-28T02:52:17;5.18;;;2.95;;
46835;SDS011;32573;51.290;6.926;2023-04-28T02:54:45;6.25;;;2.90;;
46835;SDS011;32573;51.290;6.926;2023-04-28T02:57:16;7.15;;;3.17;;
46835;SDS011;32573;51.290;6.926;2023-04-28T02:59:45;6.20;;;3.15;;
46835;SDS011;32573;51.290;6.926;2023-04-28T03:02:13;5.47;;;3.10;;
46835;SDS011;32573;51.290;6.926;2023-04-28T03:04:43;5.97;;;3.00;;
46835;SDS011;32573;51.290;6.926;2023-04-28T03:07:12;5.18;;;2.63;;
46835;SDS011;32573;51.290;6.926;2023-04-28T03:09:42;6.20;;;2.97;;
46835;SDS011;32573;51.290;6.926;2023-04-28T03:12:12;5.13;;;3.20;;
46835;SDS011;32573;51.290;6.926;2023-04-28T03:14:40;4.30;;;2.42;;
46835;SDS011;32573;51.290;6.926;2023-04-28T03:17:09;6.22;;;3.13;;
46835;SDS011;32573;51.290;6.926;2023-04-28T03:19:40;6.55;;;3.40;;
46835;SDS011;32573;51.290;6.926;2023-04-28T03:22:10;7.78;;;3.70;;
46835;SDS011;32573;51.290;6.926;2023-04-28T03:24:39;6.25;;;3.55;;
46835;SDS011;32573;51.290;6.926;2023-04-28T03:27:07;6.13;;;3.42;;
46835;SDS011;32573;51.290;6.926;2023-04-28T03:29:36;5.30;;;3.33;;
46835;SDS011;32573;51.290;6.926;2023-04-28T03:32:05;5.57;;;3.00;;
46835;SDS011;32573;51.290;6.926;2023-04-28T03:34:34;6.03;;;3.10;;
46835;SDS011;32573;51.290;6.926;2023-04-28T03:37:03;6.00;;;3.10;;
46835;SDS011;32573;51.290;6.926;2023-04-28T03:39:33;6.18;;;3.20;;
46835;SDS011;32573;51.290;6.926;2023-04-28T03:42:02;5.82;;;3.45;;
46835;SDS011;32573;51.290;6.926;2023-04-28T03:45:02;5.53;;;3.40;;
46835;SDS011;32573;51.290;6.926;2023-04-28T03:47:31;5.28;;;3.05;;
46835;SDS011;32573;51.290;6.926;2023-04-28T03:50:00;6.07;;;3.40;;
46835;SDS011;32573;51.290;6.926;2023-04-28T03:52:29;4.60;;;2.60;;
46835;SDS011;32573;51.290;6.926;2023-04-28T03:54:59;5.20;;;3.30;;
46835;SDS011;32573;51.290;6.926;2023-04-28T03:57:28;4.80;;;3.03;;
46835;SDS011;32573;51.290;6.926;2023-04-28T03:59:57;4.68;;;2.92;;
46835;SDS011;32573;51.290;6.926;2023-04-28T04:02:29;4.65;;;2.58;;
46835;SDS011;32573;51.290;6.926;2023-04-28T04:04:58;6.80;;;3.13;;
46835;SDS011;32573;51.290;6.926;2023-04-28T04:07:27;5.80;;;2.97;;
46835;SDS011;32573;51.290;6.926;2023-04-28T04:09:56;6.55;;;3.30;;
46835;SDS011;32573;51.290;6.926;2023-04-28T04:12:26;4.63;;;2.58;;
46835;SDS011;32573;51.290;6.926;2023-04-28T04:14:54;5.10;;;2.72;;
46835;SDS011;32573;51.290;6.926;2023-04-28T04:17:23;5.68;;;3.10;;
46835;SDS011;32573;51.290;6.926;2023-04-28T04:19:52;4.93;;;2.72;;
46835;SDS011;32573;51.290;6.926;2023-04-28T04:22:21;5.93;;;3.40;;
46835;SDS011;32573;51.290;6.926;2023-04-28T04:24:50;6.38;;;3.13;;
46835;SDS011;32573;51.290;6.926;2023-04-28T04:27:18;5.97;;;3.13;;
46835;SDS011;32573;51.290;6.926;2023-04-28T04:29:48;5.95;;;2.92;;
46835;SDS011;32573;51.290;6.926;2023-04-28T04:32:16;5.25;;;2.95;;
46835;SDS011;32573;51.290;6.926;2023-04-28T04:34:45;6.50;;;3.03;;
46835;SDS011;32573;51.290;6.926;2023-04-28T04:37:14;5.32;;;2.85;;
46835;SDS011;32573;51.290;6.926;2023-04-28T04:40:00;5.22;;;2.78;;
46835;SDS011;32573;51.290;6.926;2023-04-28T04:42:35;4.88;;;2.50;;
46835;SDS011;32573;51.290;6.926;2023-04-28T04:45:08;5.07;;;2.80;;
46835;SDS011;32573;51.290;6.926;2023-04-28T04:47:37;4.18;;;2.60;;
46835;SDS011;32573;51.290;6.926;2023-04-28T04:50:08;5.78;;;2.78;;
46835;SDS011;32573;51.290;6.926;2023-04-28T04:52:38;6.20;;;2.72;;
46835;SDS011;32573;51.290;6.926;2023-04-28T04:55:08;4.93;;;2.92;;
46835;SDS011;32573;51.290;6.926;2023-04-28T04:57:39;5.35;;;2.72;;
46835;SDS011;32573;51.290;6.926;2023-04-28T05:00:18;4.43;;;2.53;;
46835;SDS011;32573;51.290;6.926;2023-04-28T05:02:47;4.97;;;2.53;;
46835;SDS011;32573;51.290;6.926;2023-04-28T05:05:17;4.55;;;2.45;;
46835;SDS011;32573;51.290;6.926;2023-04-28T05:08:05;4.63;;;2.35;;
46835;SDS011;32573;51.290;6.926;2023-04-28T05:10:34;4.25;;;2.60;;
46835;SDS011;32573;51.290;6.926;2023-04-28T05:13:03;4.20;;;2.30;;
46835;SDS011;32573;51.290;6.926;2023-04-28T05:15:34;4.32;;;2.60;;
46835;SDS011;32573;51.290;6.926;2023-04-28T05:18:28;4.78;;;2.60;;
46835;SDS011;32573;51.290;6.926;2023-04-28T05:20:57;4.78;;;2.50;;
46835;SDS011;32573;51.290;6.926;2023-04-28T05:23:27;5.20;;;2.45;;
46835;SDS011;32573;51.290;6.926;2023-04-28T05:25:56;4.40;;;2.65;;
46835;SDS011;32573;51.290;6.926;2023-04-28T05:28:25;7.53;;;4.03;;
46835;SDS011;32573;51.290;6.926;2023-04-28T05:30:56;5.55;;;3.40;;
46835;SDS011;32573;51.290;6.926;2023-04-28T05:33:25;6.55;;;3.05;;
46835;SDS011;32573;51.290;6.926;2023-04-28T05:35:53;4.60;;;2.60;;
46835;SDS011;32573;51.290;6.926;2023-04-28T05:38:23;5.22;;;3.00;;
46835;SDS011;32573;51.290;6.926;2023-04-28T05:40:53;6.15;;;2.88;;
46835;SDS011;32573;51.290;6.926;2023-04-28T05:43:21;5.38;;;3.00;;
46835;SDS011;32573;51.290;6.926;2023-04-28T05:45:50;5.28;;;3.00;;
46835;SDS011;32573;51.290;6.926;2023-04-28T05:48:21;5.13;;;2.72;;
46835;SDS011;32573;51.290;6.926;2023-04-28T05:50:51;6.78;;;3.10;;
46835;SDS011;32573;51.290;6.926;2023-04-28T05:53:20;4.63;;;2.67;;
46835;SDS011;32573;51.290;6.926;2023-04-28T05:55:50;7.72;;;3.05;;
46835;SDS011;32573;51.290;6.926;2023-04-28T05:58:19;5.72;;;2.70;;
46835;SDS011;32573;51.290;6.926;2023-04-28T06:00:48;6.22;;;3.38;;
46835;SDS011;32573;51.290;6.926;2023-04-28T06:03:17;5.75;;;3.10;;
46835;SDS011;32573;51.290;6.926;2023-04-28T06:05:49;5.90;;;2.85;;
46835;SDS011;32573;51.290;6.926;2023-04-28T06:08:18;5.38;;;2.80;;
46835;SDS011;32573;51.290;6.926;2023-04-28T06:10:47;5.15;;;2.95;;
46835;SDS011;32573;51.290;6.926;2023-04-28T06:13:15;6.03;;;2.72;;
46835;SDS011;32573;51.290;6.926;2023-04-28T06:15:44;5.30;;;3.20;;
46835;SDS011;32573;51.290;6.926;2023-04-28T06:18:13;5.57;;;3.03;;
46835;SDS011;32573;51.290;6.926;2023-04-28T06:20:42;5.68;;;2.95;;
46835;SDS011;32573;51.290;6.926;2023-04-28T06:23:12;5.10;;;2.63;;
46835;SDS011;32573;51.290;6.926;2023-04-28T06:28:14;5.75;;;3.15;;
46835;SDS011;32573;51.290;6.926;2023-04-28T06:30:44;4.80;;;2.70;;
46835;SDS011;32573;51.290;6.926;2023-04-28T06:33:13;6.75;;;3.78;;
46835;SDS011;32573;51.290;6.926;2023-04-28T06:35:42;6.60;;;4.07;;
46835;SDS011;32573;51.290;6.926;2023-04-28T06:38:12;6.15;;;3.75;;
46835;SDS011;32573;51.290;6.926;2023-04-28T06:40:41;7.10;;;4.20;;
46835;SDS011;32573;51.290;6.926;2023-04-28T06:43:11;7.85;;;4.05;;
46835;SDS011;32573;51.290;6.926;2023-04-28T06:45:48;6.35;;;3.40;;
46835;SDS011;32573;51.290;6.926;2023-04-28T06:48:17;6.20;;;3.72;;
46835;SDS011;32573;51.290;6.926;2023-04-28T06:50:46;6.57;;;3.80;;
46835;SDS011;32573;51.290;6.926;2023-04-28T06:53:16;7.90;;;4.07;;
46835;SDS011;32573;51.290;6.926;2023-04-28T06:55:45;6.40;;;3.92;;
46835;SDS011;32573;51.290;6.926;2023-04-28T06:58:13;6.05;;;3.78;;
46835;SDS011;32573;51.290;6.926;2023-04-28T07:00:43;6.00;;;3.78;;
46835;SDS011;32573;51.290;6.926;2023-04-28T07:03:11;6.35;;;3.80;;
46835;SDS011;32573;51.290;6.926;2023-04-28T07:05:40;6.78;;;4.00;;
46835;SDS011;32573;51.290;6.926;2023-04-28T07:08:09;7.03;;;3.20;;
46835;SDS011;32573;51.290;6.926;2023-04-28T07:10:40;7.22;;;3.88;;
46835;SDS011;32573;51.290;6.926;2023-04-28T07:13:09;7.50;;;3.90;;
46835;SDS011;32573;51.290;6.926;2023-04-28T07:15:38;6.63;;;4.00;;
46835;SDS011;32573;51.290;6.926;2023-04-28T07:18:07;6.03;;;3.25;;
46835;SDS011;32573;51.290;6.926;2023-04-28T07:20:36;6.55;;;3.90;;
46835;SDS011;32573;51.290;6.926;2023-04-28T07:23:05;7.70;;;4.38;;
46835;SDS011;32573;51.290;6.926;2023-04-28T07:25:34;6.03;;;3.40;;
46835;SDS011;32573;51.290;6.926;2023-04-28T07:28:04;6.28;;;3.70;;
46835;SDS011;32573;51.290;6.926;2023-04-28T07:30:33;7.93;;;4.03;;
46835;SDS011;32573;51.290;6.926;2023-04-28T07:33:02;6.43;;;3.50;;
46835;SDS011;32573;51.290;6.926;2023-04-28T07:35:31;5.53;;;3.15;;
46835;SDS011;32573;51.290;6.926;2023-04-28T07:37:59;6.45;;;3.63;;
46835;SDS011;32573;51.290;6.926;2023-04-28T07:40:29;6.40;;;3.70;;
46835;SDS011;32573;51.290;6.926;2023-04-28T07:42:58;6.57;;;4.03;;
46835;SDS011;32573;51.290;6.926;2023-04-28T07:45:28;6.93;;;4.10;;
46835;SDS011;32573;51.290;6.926;2023-04-28T07:47:57;7.18;;;4.20;;
46835;SDS011;32573;51.290;6.926;2023-04-28T07:50:26;7.43;;;4.07;;
46835;SDS011;32573;51.290;6.926;2023-04-28T07:52:54;6.70;;;4.00;;
46835;SDS011;32573;51.290;6.926;2023-04-28T07:55:24;7.78;;;4.40;;
46835;SDS011;32573;51.290;6.926;2023-04-28T07:57:53;7.60;;;3.90;;
46835;SDS011;32573;51.290;6.926;2023-04-28T08:00:23;7.28;;;4.10;;
46835;SDS011;32573;51.290;6.926;2023-04-28T08:02:52;7.25;;;3.95;;
46835;SDS011;32573;51.290;6.926;2023-04-28T08:05:23;7.38;;;4.10;;
46835;SDS011;32573;51.290;6.926;2023-04-28T08:07:52;5.85;;;3.17;;
46835;SDS011;32573;51.290;6.926;2023-04-28T08:10:20;6.15;;;3.42;;
46835;SDS011;32573;51.290;6.926;2023-04-28T08:12:49;4.85;;;3.13;;
46835;SDS011;32573;51.290;6.926;2023-04-28T08:15:17;6.07;;;3.17;;
46835;SDS011;32573;51.290;6.926;2023-04-28T08:17:46;6.50;;;3.80;;
46835;SDS011;32573;51.290;6.926;2023-04-28T08:20:16;6.47;;;3.90;;
46835;SDS011;32573;51.290;6.926;2023-04-28T08:22:49;7.28;;;4.30;;
46835;SDS011;32573;51.290;6.926;2023-04-28T08:25:18;7.15;;;4.10;;
46835;SDS011;32573;51.290;6.926;2023-04-28T08:27:47;6.53;;;4.20;;
46835;SDS011;32573;51.290;6.926;2023-04-28T08:30:15;5.25;;;3.30;;
46835;SDS011;32573;51.290;6.926;2023-04-28T08:32:44;6.25;;;3.67;;
46835;SDS011;32573;51.290;6.926;2023-04-28T08:35:13;8.35;;;4.38;;
46835;SDS011;32573;51.290;6.926;2023-04-28T08:37:43;7.25;;;3.88;;
46835;SDS011;32573;51.290;6.926;2023-04-28T08:40:12;6.35;;;3.60;;
46835;SDS011;32573;51.290;6.926;2023-04-28T08:42:41;8.93;;;3.90;;
46835;SDS011;32573;51.290;6.926;2023-04-28T08:45:12;7.68;;;4.50;;
46835;SDS011;32573;51.290;6.926;2023-04-28T08:47:41;6.75;;;3.97;;
46835;SDS011;32573;51.290;6.926;2023-04-28T08:50:12;7.45;;;4.03;;
46835;SDS011;32573;51.290;6.926;2023-04-28T08:52:41;7.97;;;4.22;;
46835;SDS011;32573;51.290;6.926;2023-04-28T08:55:11;8.40;;;4.05;;
46835;SDS011;32573;51.290;6.926;2023-04-28T08:57:41;8.73;;;4.82;;
46835;SDS011;32573;51.290;6.926;2023-04-28T09:00:11;6.82;;;4.18;;
46835;SDS011;32573;51.290;6.926;2023-04-28T09:02:40;7.43;;;4.15;;
46835;SDS011;32573;51.290;6.926;2023-04-28T09:05:09;8.45;;;4.45;;
46835;SDS011;32573;51.290;6.926;2023-04-28T09:07:44;8.07;;;3.90;;
46835;SDS011;32573;51.290;6.926;2023-04-28T09:10:16;9.65;;;4.25;;
46835;SDS011;32573;51.290;6.926;2023-04-28T09:12:46;9.13;;;4.60;;
46835;SDS011;32573;51.290;6.926;2023-04-28T09:15:25;6.53;;;4.05;;
46835;SDS011;32573;51.290;6.926;2023-04-28T09:17:57;7.63;;;3.90;;
46835;SDS011;32573;51.290;6.926;2023-04-28T09:20:27;7.28;;;4.10;;
46835;SDS011;32573;51.290;6.926;2023-04-28T09:23:11;6.53;;;3.53;;
46835;SDS011;32573;51.290;6.926;2023-04-28T09:25:55;6.30;;;3.63;;
46835;SDS011;32573;51.290;6.926;2023-04-28T09:28:25;8.45;;;4.38;;
46835;SDS011;32573;51.290;6.926;2023-04-28T09:30:55;9.02;;;4.43;;
46835;SDS011;32573;51.290;6.926;2023-04-28T09:33:24;7.20;;;4.50;;
46835;SDS011;32573;51.290;6.926;2023-04-28T09:35:53;7.47;;;4.40;;
46835;SDS011;32573;51.290;6.926;2023-04-28T09:38:21;7.85;;;4.53;;
46835;SDS011;32573;51.290;6.926;2023-04-28T09:40:51;8.25;;;4.15;;
46835;SDS011;32573;51.290;6.926;2023-04-28T09:43:29;8.48;;;4.55;;
46835;SDS011;32573;51.290;6.926;2023-04-28T09:46:00;6.60;;;4.38;;
46835;SDS011;32573;51.290;6.926;2023-04-28T09:48:30;7.90;;;4.47;;
46835;SDS011;32573;51.290;6.926;2023-04-28T09:51:00;10.05;;;5.20;;
46835;SDS011;32573;51.290;6.926;2023-04-28T09:53:30;8.20;;;4.40;;
46835;SDS011;32573;51.290;6.926;2023-04-28T09:55:59;8.13;;;4.75;;
46835;SDS011;32573;51.290;6.926;2023-04-28T09:58:30;6.65;;;3.83;;
46835;SDS011;32573;51.290;6.926;2023-04-28T10:01:02;6.90;;;4.47;;
46835;SDS011;32573;51.290;6.926;2023-04-28T10:03:32;7.72;;;4.57;;
46835;SDS011;32573;51.290;6.926;2023-04-28T10:06:03;7.50;;;4.60;;
46835;SDS011;32573;51.290;6.926;2023-04-28T10:08:32;6.65;;;4.15;;
46835;SDS011;32573;51.290;6.926;2023-04-28T10:11:01;7.28;;;4.30;;
46835;SDS011;32573;51.290;6.926;2023-04-28T10:13:33;7.82;;;4.60;;
46835;SDS011;32573;51.290;6.926;2023-04-28T10:16:03;6.75;;;4.25;;
46835;SDS011;32573;51.290;6.926;2023-04-28T10:18:32;7.88;;;4.47;;
46835;SDS011;32573;51.290;6.926;2023-04-28T10:21:03;8.25;;;4.60;;
46835;SDS011;32573;51.290;6.926;2023-04-28T10:26:33;7.75;;;4.50;;
46835;SDS011;32573;51.290;6.926;2023-04-28T10:29:29;9.80;;;5.68;;
46835;SDS011;32573;51.290;6.926;2023-04-28T10:32:15;9.73;;;5.57;;
46835;SDS011;32573;51.290;6.926;2023-04-28T10:34:48;8.40;;;5.68;;
46835;SDS011;32573;51.290;6.926;2023-04-28T10:37:17;8.20;;;5.43;;
46835;SDS011;32573;51.290;6.926;2023-04-28T10:42:52;11.45;;;6.00;;
46835;SDS011;32573;51.290;6.926;2023-04-28T10:51:35;9.23;;;5.93;;
46835;SDS011;32573;51.290;6.926;2023-04-28T10:54:07;9.38;;;6.45;;
46835;SDS011;32573;51.290;6.926;2023-04-28T10:56:37;9.50;;;6.43;;
46835;SDS011;32573;51.290;6.926;2023-04-28T11:05:17;8.40;;;5.60;;
46835;SDS011;32573;51.290;6.926;2023-04-28T11:11:12;11.75;;;7.57;;
46835;SDS011;32573;51.290;6.926;2023-04-28T11:13:48;9.93;;;6.85;;
46835;SDS011;32573;51.290;6.926;2023-04-28T11:16:18;10.02;;;6.80;;
46835;SDS011;32573;51.290;6.926;2023-04-28T11:18:50;10.30;;;7.20;;
46835;SDS011;32573;51.290;6.926;2023-04-28T11:21:22;11.50;;;7.63;;
46835;SDS011;32573;51.290;6.926;2023-04-28T11:23:53;11.40;;;7.93;;
46835;SDS011;32573;51.290;6.926;2023-04-28T11:26:22;12.52;;;8.40;;
46835;SDS011;32573;51.290;6.926;2023-04-28T11:28:51;10.90;;;7.05;;
46835;SDS011;32573;51.290;6.926;2023-04-28T11:31:21;10.95;;;7.18;;
46835;SDS011;32573;51.290;6.926;2023-04-28T11:33:52;11.35;;;8.05;;
46835;SDS011;32573;51.290;6.926;2023-04-28T11:36:23;11.18;;;7.65;;
46835;SDS011;32573;51.290;6.926;2023-04-28T11:38:57;10.35;;;7.10;;
46835;SDS011;32573;51.290;6.926;2023-04-28T11:41:26;11.27;;;7.72;;
46835;SDS011;32573;51.290;6.926;2023-04-28T11:43:55;10.30;;;7.70;;
46835;SDS011;32573;51.290;6.926;2023-04-28T11:46:25;14.57;;;9.38;;
46835;SDS011;32573;51.290;6.926;2023-04-28T11:49:01;14.13;;;8.38;;
46835;SDS011;32573;51.290;6.926;2023-04-28T11:51:35;13.55;;;9.70;;
46835;SDS011;32573;51.290;6.926;2023-04-28T11:54:06;11.77;;;7.78;;
46835;SDS011;32573;51.290;6.926;2023-04-28T11:56:38;10.70;;;7.10;;
46835;SDS011;32573;51.290;6.926;2023-04-28T11:59:12;10.55;;;6.95;;
46835;SDS011;32573;51.290;6.926;2023-04-28T12:01:45;12.07;;;8.50;;
46835;SDS011;32573;51.290;6.926;2023-04-28T12:04:25;11.38;;;7.32;;
46835;SDS011;32573;51.290;6.926;2023-04-28T12:06:59;12.07;;;8.73;;
46835;SDS011;32573;51.290;6.926;2023-04-28T12:09:33;12.02;;;8.68;;
46835;SDS011;32573;51.290;6.926;2023-04-28T12:12:03;9.48;;;6.60;;
46835;SDS011;32573;51.290;6.926;2023-04-28T12:17:23;10.45;;;6.97;;
46835;SDS011;32573;51.290;6.926;2023-04-28T12:19:53;10.90;;;6.57;;
46835;SDS011;32573;51.290;6.926;2023-04-28T12:22:22;9.32;;;6.40;;
46835;SDS011;32573;51.290;6.926;2023-04-28T12:25:03;9.35;;;6.38;;
46835;SDS011;32573;51.290;6.926;2023-04-28T12:27:34;8.88;;;5.75;;
46835;SDS011;32573;51.290;6.926;2023-04-28T12:32:52;9.82;;;6.95;;
46835;SDS011;32573;51.290;6.926;2023-04-28T12:35:22;10.20;;;6.88;;
46835;SDS011;32573;51.290;6.926;2023-04-28T12:37:52;13.30;;;9.13;;
46835;SDS011;32573;51.290;6.926;2023-04-28T12:40:25;11.95;;;7.68;;
46835;SDS011;32573;51.290;6.926;2023-04-28T12:42:54;11.82;;;8.10;;
46835;SDS011;32573;51.290;6.926;2023-04-28T12:45:23;10.32;;;7.70;;
46835;SDS011;32573;51.290;6.926;2023-04-28T12:47:52;12.25;;;8.65;;
46835;SDS011;32573;51.290;6.926;2023-04-28T12:50:21;10.50;;;7.97;;
46835;SDS011;32573;51.290;6.926;2023-04-28T12:52:51;12.43;;;8.88;;
46835;SDS011;32573;51.290;6.926;2023-04-28T12:55:21;9.55;;;7.63;;
46835;SDS011;32573;51.290;6.926;2023-04-28T12:57:51;9.88;;;6.50;;
46835;SDS011;32573;51.290;6.926;2023-04-28T13:00:21;9.85;;;7.60;;
46835;SDS011;32573;51.290;6.926;2023-04-28T13:02:51;8.65;;;6.50;;
46835;SDS011;32573;51.290;6.926;2023-04-28T13:05:20;9.02;;;6.82;;
46835;SDS011;32573;51.290;6.926;2023-04-28T13:07:48;8.98;;;6.65;;
46835;SDS011;32573;51.290;6.926;2023-04-28T13:10:18;8.77;;;6.93;;
46835;SDS011;32573;51.290;6.926;2023-04-28T13:12:48;8.90;;;6.72;;
46835;SDS011;32573;51.290;6.926;2023-04-28T13:15:17;9.77;;;7.32;;
46835;SDS011;32573;51.290;6.926;2023-04-28T13:17:46;8.43;;;6.38;;
46835;SDS011;32573;51.290;6.926;2023-04-28T13:20:15;8.60;;;6.03;;
46835;SDS011;32573;51.290;6.926;2023-04-28T13:22:44;8.93;;;6.60;;
46835;SDS011;32573;51.290;6.926;2023-04-28T13:25:13;8.80;;;6.65;;
46835;SDS011;32573;51.290;6.926;2023-04-28T13:27:42;8.15;;;5.78;;
46835;SDS011;32573;51.290;6.926;2023-04-28T13:30:11;7.75;;;5.97;;
46835;SDS011;32573;51.290;6.926;2023-04-28T13:32:41;6.55;;;5.00;;
46835;SDS011;32573;51.290;6.926;2023-04-28T13:35:10;6.25;;;4.80;;
46835;SDS011;32573;51.290;6.926;2023-04-28T13:37:39;7.47;;;5.47;;
46835;SDS011;32573;51.290;6.926;2023-04-28T13:40:11;7.18;;;5.00;;
46835;SDS011;32573;51.290;6.926;2023-04-28T13:42:40;5.53;;;4.00;;
46835;SDS011;32573;51.290;6.926;2023-04-28T13:45:09;6.68;;;4.88;;
46835;SDS011;32573;51.290;6.926;2023-04-28T13:47:44;5.55;;;3.90;;
46835;SDS011;32573;51.290;6.926;2023-04-28T13:50:16;5.50;;;3.65;;
46835;SDS011;32573;51.290;6.926;2023-04-28T13:52:44;5.65;;;3.60;;
46835;SDS011;32573;51.290;6.926;2023-04-28T13:55:14;5.78;;;4.05;;
46835;SDS011;32573;51.290;6.926;2023-04-28T13:57:43;5.28;;;3.58;;
46835;SDS011;32573;51.290;6.926;2023-04-28T14:00:12;5.45;;;3.33;;
46835;SDS011;32573;51.290;6.926;2023-04-28T14:02:41;4.97;;;3.47;;
46835;SDS011;32573;51.290;6.926;2023-04-28T14:05:12;5.28;;;3.70;;
46835;SDS011;32573;51.290;6.926;2023-04-28T14:07:41;6.45;;;4.00;;
46835;SDS011;32573;51.290;6.926;2023-04-28T14:10:09;6.82;;;4.72;;
46835;SDS011;32573;51.290;6.926;2023-04-28T14:12:38;6.15;;;4.30;;
46835;SDS011;32573;51.290;6.926;2023-04-28T14:15:07;5.97;;;4.03;;
46835;SDS011;32573;51.290;6.926;2023-04-28T14:17:35;5.20;;;3.70;;
46835;SDS011;32573;51.290;6.926;2023-04-28T14:20:05;6.55;;;4.53;;
46835;SDS011;32573;51.290;6.926;2023-04-28T14:22:38;5.28;;;3.83;;
46835;SDS011;32573;51.290;6.926;2023-04-28T14:25:08;5.85;;;4.07;;
46835;SDS011;32573;51.290;6.926;2023-04-28T14:27:37;4.88;;;3.10;;
46835;SDS011;32573;51.290;6.926;2023-04-28T14:30:09;6.15;;;3.80;;
46835;SDS011;32573;51.290;6.926;2023-04-28T14:32:38;5.05;;;3.50;;
46835;SDS011;32573;51.290;6.926;2023-04-28T14:35:07;4.85;;;2.88;;
46835;SDS011;32573;51.290;6.926;2023-04-28T14:37:40;4.38;;;2.33;;
46835;SDS011;32573;51.290;6.926;2023-04-28T14:40:10;4.05;;;2.40;;
46835;SDS011;32573;51.290;6.926;2023-04-28T14:42:39;3.83;;;1.70;;
46835;SDS011;32573;51.290;6.926;2023-04-28T14:45:08;3.85;;;2.10;;
46835;SDS011;32573;51.290;6.926;2023-04-28T14:47:38;4.13;;;1.88;;
46835;SDS011;32573;51.290;6.926;2023-04-28T14:50:08;3.60;;;1.80;;
46835;SDS011;32573;51.290;6.926;2023-04-28T14:52:41;5.05;;;1.80;;
46835;SDS011;32573;51.290;6.926;2023-04-28T14:55:10;3.30;;;1.70;;
46835;SDS011;32573;51.290;6.926;2023-04-28T14:57:39;3.75;;;1.60;;
46835;SDS011;32573;51.290;6.926;2023-04-28T15:00:08;2.97;;;1.40;;
46835;SDS011;32573;51.290;6.926;2023-04-28T15:02:38;2.80;;;1.45;;
46835;SDS011;32573;51.290;6.926;2023-04-28T15:05:07;3.17;;;1.42;;
46835;SDS011;32573;51.290;6.926;2023-04-28T15:07:37;3.50;;;1.48;;
46835;SDS011;32573;51.290;6.926;2023-04-28T15:10:07;2.75;;;1.40;;
46835;SDS011;32573;51.290;6.926;2023-04-28T15:12:36;2.88;;;1.20;;
46835;SDS011;32573;51.290;6.926;2023-04-28T15:15:05;2.95;;;1.60;;
46835;SDS011;32573;51.290;6.926;2023-04-28T15:17:34;3.50;;;1.48;;
46835;SDS011;32573;51.290;6.926;2023-04-28T15:20:03;3.28;;;1.75;;
46835;SDS011;32573;51.290;6.926;2023-04-28T15:22:32;3.58;;;1.88;;
46835;SDS011;32573;51.290;6.926;2023-04-28T15:25:02;5.57;;;2.33;;
46835;SDS011;32573;51.290;6.926;2023-04-28T15:27:33;3.20;;;1.80;;
46835;SDS011;32573;51.290;6.926;2023-04-28T15:30:02;2.92;;;1.70;;
46835;SDS011;32573;51.290;6.926;2023-04-28T15:32:32;3.05;;;1.60;;
46835;SDS011;32573;51.290;6.926;2023-04-28T15:35:01;3.70;;;2.42;;